Time;durP1;ratioP1;P1;durP2;ratioP2;P2;SDS_P1;SDS_P2;PMS_P1;PMS_P2;Temp;Humidity;BMP_temperature;BMP_pressure;BME280_temperature;BME280_humidity;BME280_pressure;Samples;Min_cycle;Max_cycle;Signal;HPM_P1;HPM_P2
2022/03/05 00:00:52;;;;;;;5.45;4.18;;;;;;;19.11;36.82;100781.63;5003788;28;20022;-43
2022/03/05 00:03:18;;;;;;;5.22;3.70;;;;;;;19.11;36.93;100781.63;5003465;28;20353;-40
2022/03/05 00:05:44;;;;;;;6.03;3.78;;;;;;;19.10;37.02;100773.88;5002312;28;20081;-41
2022/03/05 00:08:09;;;;;;;6.88;4.60;;;;;;;19.09;36.99;100770.44;5002810;28;20161;-40
2022/03/05 00:10:35;;;;;;;5.15;3.63;;;;;;;19.09;37.00;100780.19;5002703;28;20120;-40
2022/03/05 00:13:01;;;;;;;5.50;3.97;;;;;;;19.09;37.01;100772.25;5002735;28;20049;-41
2022/03/05 00:15:28;;;;;;;4.20;3.80;;;;;;;19.07;37.09;100779.56;5003603;28;20029;-40
2022/03/05 00:17:54;;;;;;;5.72;3.70;;;;;;;19.08;37.28;100778.53;5003614;28;20563;-40
2022/03/05 00:20:20;;;;;;;6.63;4.03;;;;;;;19.06;36.91;100776.09;5001695;28;20049;-41
2022/03/05 00:22:46;;;;;;;4.85;4.32;;;;;;;19.05;36.78;100771.81;5002103;28;20034;-40
2022/03/05 00:25:13;;;;;;;6.03;3.80;;;;;;;19.04;36.54;100780.75;5005068;28;20118;-40
2022/03/05 00:27:39;;;;;;;6.15;3.97;;;;;;;19.04;36.58;100775.47;5002501;28;20064;-40
2022/03/05 00:30:06;;;;;;;4.20;3.80;;;;;;;19.04;36.65;100772.81;5003401;28;20029;-40
2022/03/05 00:32:32;;;;;;;7.20;4.20;;;;;;;19.03;36.82;100781.75;5002072;28;20231;-40
2022/03/05 00:34:57;;;;;;;4.65;3.95;;;;;;;19.03;36.92;100788.88;5005166;28;20037;-40
2022/03/05 00:37:22;;;;;;;7.00;3.60;;;;;;;19.03;37.00;100767.75;5003222;28;20037;-40
2022/03/05 00:39:48;;;;;;;5.70;4.18;;;;;;;19.02;36.99;100784.59;5002963;28;20560;-40
2022/03/05 00:42:13;;;;;;;4.25;3.80;;;;;;;19.03;36.95;100773.03;5003362;28;20159;-40
2022/03/05 00:44:39;;;;;;;4.28;3.83;;;;;;;19.02;36.80;100768.75;5002024;28;20038;-40
2022/03/05 00:47:05;;;;;;;3.53;3.22;;;;;;;19.02;36.82;100766.91;5003196;28;20037;-40
2022/03/05 00:49:31;;;;;;;4.43;3.85;;;;;;;19.02;36.71;100771.38;5003453;28;20018;-41
2022/03/05 00:51:56;;;;;;;5.00;4.10;;;;;;;19.00;36.65;100763.66;5003108;28;20502;-41
2022/03/05 00:54:22;;;;;;;4.82;3.65;;;;;;;19.01;36.67;100770.56;5003076;28;20918;-40
2022/03/05 00:56:47;;;;;;;5.22;3.83;;;;;;;19.01;36.69;100770.56;5003800;28;20457;-40
2022/03/05 00:59:13;;;;;;;4.88;4.00;;;;;;;19.01;36.62;100764.47;5001590;28;20038;-40
2022/03/05 01:01:39;;;;;;;5.57;3.63;;;;;;;19.00;36.69;100768.94;5002674;28;20353;-40
2022/03/05 01:04:05;;;;;;;6.72;3.70;;;;;;;19.01;36.43;100772.41;5002952;28;20123;-40
2022/03/05 01:06:31;;;;;;;4.10;3.67;;;;;;;18.99;36.56;100769.94;5001890;28;20470;-40
2022/03/05 01:09:04;;;;;;;4.18;3.58;;;;;;;18.97;36.38;100763.22;5003681;28;20117;-40
2022/03/05 01:11:30;;;;;;;6.22;3.72;;;;;;;18.97;36.54;100766.69;5002691;28;20421;-40
2022/03/05 01:13:55;;;;;;;5.28;3.60;;;;;;;18.96;36.48;100772.16;5001345;28;20042;-42
2022/03/05 01:16:21;;;;;;;4.28;3.50;;;;;;;18.96;36.48;100762.41;4998988;28;20077;-40
2022/03/05 01:18:47;;;;;;;4.85;3.83;;;;;;;18.96;36.43;100756.31;5002759;28;20481;-40
2022/03/05 01:21:12;;;;;;;5.13;4.07;;;;;;;18.94;36.26;100756.50;5003710;28;20024;-41
2022/03/05 01:23:38;;;;;;;4.00;3.60;;;;;;;18.95;36.32;100754.69;5002181;28;20029;-41
2022/03/05 01:26:04;;;;;;;4.50;3.67;;;;;;;18.93;36.24;100752.22;5000482;28;20184;-40
2022/03/05 01:28:30;;;;;;;6.68;4.45;;;;;;;18.94;36.16;100753.03;5001851;28;20112;-41
2022/03/05 01:30:55;;;;;;;4.43;3.80;;;;;;;18.91;36.18;100743.69;5001176;28;20385;-40
2022/03/05 01:33:22;;;;;;;4.57;3.20;;;;;;;18.91;36.12;100743.69;5003031;28;20048;-40
2022/03/05 01:35:48;;;;;;;5.18;4.32;;;;;;;18.89;35.95;100740.44;5001967;28;20472;-41
2022/03/05 01:38:15;;;;;;;4.35;3.65;;;;;;;18.88;35.96;100737.00;5002750;28;20045;-40
2022/03/05 01:40:41;;;;;;;5.30;4.18;;;;;;;18.88;35.85;100739.63;5002905;28;20284;-41
2022/03/05 01:43:07;;;;;;;4.47;3.72;;;;;;;18.87;35.98;100735.34;5016370;28;20034;-40
2022/03/05 01:45:34;;;;;;;4.88;3.67;;;;;;;18.87;35.93;100734.53;5001723;28;20486;-41
2022/03/05 01:48:00;;;;;;;4.45;3.67;;;;;;;18.85;35.97;100734.72;5003578;28;20056;-40
2022/03/05 01:50:26;;;;;;;4.47;3.58;;;;;;;18.85;36.01;100729.44;5004868;28;20442;-40
2022/03/05 01:52:52;;;;;;;4.47;3.53;;;;;;;18.85;36.09;100724.16;5006886;28;20041;-41
2022/03/05 01:55:18;;;;;;;3.50;3.20;;;;;;;18.85;36.14;100723.34;5005148;28;20057;-41
2022/03/05 01:57:43;;;;;;;4.47;3.00;;;;;;;18.84;36.37;100717.25;5007116;28;20026;-41
2022/03/05 02:00:11;;;;;;;4.22;3.13;;;;;;;18.84;36.26;100717.25;5003182;28;20049;-40
2022/03/05 02:02:37;;;;;;;4.20;3.42;;;;;;;18.84;36.33;100719.91;5004798;28;20018;-40
2022/03/05 02:05:03;;;;;;;4.20;3.03;;;;;;;18.83;36.13;100720.09;5003976;28;20022;-41
2022/03/05 02:07:29;;;;;;;3.80;3.25;;;;;;;18.82;36.19;100724.56;5006409;28;20371;-40
2022/03/05 02:09:54;;;;;;;4.55;3.60;;;;;;;18.81;36.26;100725.56;5004605;28;20021;-40
2022/03/05 02:12:27;;;;;;;3.45;3.05;;;;;;;18.80;36.31;100721.28;5220741;22;20066;-40
2022/03/05 02:14:52;;;;;;;3.50;3.20;;;;;;;18.80;36.35;100716.00;4990275;28;20534;-40
2022/03/05 02:17:18;;;;;;;4.20;3.35;;;;;;;18.79;36.46;100714.38;4990015;28;20034;-40
2022/03/05 02:19:43;;;;;;;3.60;3.10;;;;;;;18.80;36.64;100717.84;4990106;28;20026;-40
2022/03/05 02:22:10;;;;;;;3.53;2.60;;;;;;;18.78;36.57;100723.31;4990024;28;20042;-40
2022/03/05 02:24:37;;;;;;;4.72;3.92;;;;;;;18.78;36.71;100717.22;4989979;28;20029;-40
2022/03/05 02:27:05;;;;;;;3.63;3.00;;;;;;;18.78;36.49;100725.13;4990021;28;20495;-40
2022/03/05 02:29:31;;;;;;;4.38;3.13;;;;;;;18.78;36.66;100722.50;4989828;28;20527;-41
2022/03/05 02:31:57;;;;;;;3.03;2.67;;;;;;;18.77;36.82;100721.66;4990457;28;20065;-40
2022/03/05 02:34:22;;;;;;;3.85;2.60;;;;;;;18.77;36.73;100720.84;4989916;28;20128;-40
2022/03/05 02:36:48;;;;;;;3.30;2.75;;;;;;;18.76;36.75;100725.31;4989674;28;20034;-40
2022/03/05 02:39:13;;;;;;;3.30;2.92;;;;;;;18.77;36.91;100716.41;4989922;28;20029;-40
2022/03/05 02:41:39;;;;;;;4.20;2.80;;;;;;;18.77;36.73;100726.13;4989793;28;20026;-40
2022/03/05 02:44:04;;;;;;;3.97;3.03;;;;;;;18.76;36.84;100719.22;4989819;28;20030;-40
2022/03/05 02:46:30;;;;;;;3.55;2.70;;;;;;;18.76;36.73;100717.41;4989825;28;20145;-40
2022/03/05 02:48:56;;;;;;;3.55;3.00;;;;;;;18.77;36.74;100713.75;4990126;28;20034;-41
2022/03/05 02:51:22;;;;;;;3.53;2.80;;;;;;;18.75;36.89;100710.50;4989496;28;20408;-40
2022/03/05 02:53:48;;;;;;;3.30;3.00;;;;;;;18.77;36.97;100705.03;4989443;28;20286;-41
2022/03/05 02:56:14;;;;;;;3.78;3.08;;;;;;;18.76;36.77;100703.38;4989975;28;20038;-40
2022/03/05 02:58:39;;;;;;;3.20;2.90;;;;;;;18.76;36.94;100704.19;4989332;28;20033;-40
2022/03/05 03:01:05;;;;;;;3.90;3.20;;;;;;;18.75;36.97;100707.84;4988825;28;20311;-40
2022/03/05 03:03:30;;;;;;;2.80;2.30;;;;;;;18.75;36.93;100707.03;4989379;28;20366;-42
2022/03/05 03:05:56;;;;;;;3.45;3.13;;;;;;;18.73;36.97;100709.88;4989462;28;20030;-40
2022/03/05 03:08:21;;;;;;;2.75;2.55;;;;;;;18.72;36.99;100708.22;4989516;28;20030;-40
2022/03/05 03:10:46;;;;;;;3.60;2.55;;;;;;;18.72;36.89;100702.94;4989151;28;20034;-40
2022/03/05 03:13:12;;;;;;;3.10;2.78;;;;;;;18.72;36.94;100704.78;4988988;28;20521;-40
2022/03/05 03:15:37;;;;;;;3.67;2.88;;;;;;;18.72;36.90;100702.13;4987819;28;20528;-40
2022/03/05 03:18:03;;;;;;;3.35;2.70;;;;;;;18.70;36.87;100704.97;4986152;28;20034;-41
2022/03/05 03:20:28;;;;;;;3.60;3.30;;;;;;;18.69;37.03;100700.69;4987000;28;20030;-40
2022/03/05 03:22:55;;;;;;;2.95;2.65;;;;;;;18.68;37.02;100709.63;4985892;28;20166;-40
2022/03/05 03:25:20;;;;;;;2.97;2.67;;;;;;;18.67;37.10;100708.00;4985464;28;20209;-40
2022/03/05 03:27:46;;;;;;;4.75;2.78;;;;;;;18.66;37.05;100709.00;4986901;28;20057;-40
2022/03/05 03:30:12;;;;;;;4.25;2.67;;;;;;;18.66;37.13;100714.28;4984715;28;20482;-41
2022/03/05 03:32:38;;;;;;;3.65;3.05;;;;;;;18.65;37.12;100710.00;4986675;28;20022;-40
2022/03/05 03:35:05;;;;;;;2.72;2.53;;;;;;;18.64;37.09;100705.72;4985748;28;20046;-40
2022/03/05 03:37:31;;;;;;;3.55;3.00;;;;;;;18.64;37.18;100711.00;4986544;28;20541;-40
2022/03/05 03:39:58;;;;;;;3.25;2.95;;;;;;;18.63;37.06;100719.94;4985485;28;20052;-40
2022/03/05 03:42:24;;;;;;;3.72;3.00;;;;;;;18.62;37.13;100713.03;4985436;28;20231;-40
2022/03/05 03:44:50;;;;;;;3.00;2.55;;;;;;;18.62;37.14;100718.28;4986689;28;20042;-40
2022/03/05 03:47:16;;;;;;;3.63;3.25;;;;;;;18.62;37.02;100718.28;4985672;28;20496;-40
2022/03/05 03:49:41;;;;;;;3.28;2.42;;;;;;;18.62;36.92;100702.47;4985867;28;20485;-40
2022/03/05 03:52:07;;;;;;;2.67;2.47;;;;;;;18.61;37.07;100711.38;4985226;28;20068;-40
2022/03/05 03:54:32;;;;;;;2.90;2.70;;;;;;;18.60;37.09;100709.75;4986150;28;20356;-40
2022/03/05 03:56:58;;;;;;;2.63;2.30;;;;;;;18.61;37.08;100707.94;4986432;28;20557;-41
2022/03/05 03:59:23;;;;;;;3.97;3.10;;;;;;;18.59;37.05;100710.72;4985102;28;20324;-40
2022/03/05 04:01:49;;;;;;;3.05;2.60;;;;;;;18.58;36.99;100706.47;4986415;28;20395;-40
2022/03/05 04:04:14;;;;;;;3.53;2.88;;;;;;;18.58;37.00;100711.72;4985384;28;20030;-41
2022/03/05 04:09:23;;;;;;;2.95;2.65;;;;;;;18.56;37.04;100713.75;4985019;28;20045;-40
2022/03/05 04:11:49;;;;;;;2.78;2.58;;;;;;;18.57;37.15;100710.09;4985874;28;20050;-40
2022/03/05 04:14:15;;;;;;;3.13;2.33;;;;;;;18.56;37.07;100713.75;4984992;28;20553;-40
2022/03/05 04:16:41;;;;;;;3.83;3.13;;;;;;;18.56;37.03;100713.75;4985842;28;20030;-41
2022/03/05 04:19:07;;;;;;;3.35;2.40;;;;;;;18.55;37.00;100720.03;4986277;28;20101;-40
2022/03/05 04:21:32;;;;;;;3.28;2.35;;;;;;;18.55;37.23;100720.03;4984491;28;20054;-40
2022/03/05 04:23:58;;;;;;;2.90;2.60;;;;;;;18.53;37.05;100714.13;4985197;28;20030;-40
2022/03/05 04:26:23;;;;;;;2.72;2.35;;;;;;;18.54;37.04;100731.59;4985343;28;20088;-41
2022/03/05 04:28:49;;;;;;;3.03;2.35;;;;;;;18.54;37.11;100726.31;4985561;28;20241;-40
2022/03/05 04:31:14;;;;;;;5.05;3.00;;;;;;;18.52;37.08;100717.78;4985939;28;20045;-40
2022/03/05 04:33:39;;;;;;;2.45;2.10;;;;;;;18.52;37.01;100717.78;4985504;28;20065;-40
2022/03/05 04:36:05;;;;;;;3.22;2.42;;;;;;;18.51;37.06;100724.88;4985877;28;20038;-40
2022/03/05 04:38:31;;;;;;;3.40;2.60;;;;;;;18.52;36.97;100725.69;4984320;28;20061;-40
2022/03/05 04:40:56;;;;;;;3.42;2.00;;;;;;;18.53;37.07;100732.59;4985622;28;20457;-40
2022/03/05 04:43:22;;;;;;;2.75;2.22;;;;;;;18.52;36.96;100728.31;4985413;28;20022;-40
2022/03/05 04:45:48;;;;;;;2.53;2.33;;;;;;;18.51;36.71;100719.59;4985086;28;20027;-40
2022/03/05 04:48:13;;;;;;;2.92;2.28;;;;;;;18.52;36.97;100738.88;4985825;28;20040;-40
2022/03/05 04:50:38;;;;;;;3.45;2.30;;;;;;;18.51;36.96;100721.41;4984724;28;20477;-42
2022/03/05 04:53:04;;;;;;;2.85;2.50;;;;;;;18.50;37.08;100728.50;4982894;28;20030;-40
2022/03/05 04:55:29;;;;;;;3.67;2.33;;;;;;;18.50;36.97;100725.06;4986043;28;20089;-40
2022/03/05 04:57:55;;;;;;;2.53;2.33;;;;;;;18.49;37.03;100726.88;4984458;28;20474;-40
2022/03/05 05:00:21;;;;;;;2.40;2.15;;;;;;;18.49;37.02;100729.50;4985578;28;20026;-40
2022/03/05 05:02:46;;;;;;;2.90;2.47;;;;;;;18.49;36.96;100723.41;4984587;28;20037;-40
2022/03/05 05:05:12;;;;;;;2.55;2.00;;;;;;;18.48;36.92;100727.88;4985542;28;20027;-40
2022/03/05 05:07:37;;;;;;;2.92;2.25;;;;;;;18.47;37.00;100726.25;4985553;28;20038;-41
2022/03/05 05:10:03;;;;;;;3.20;2.55;;;;;;;18.47;36.87;100722.78;4984343;28;20030;-40
2022/03/05 05:12:29;;;;;;;2.42;1.98;;;;;;;18.45;36.90;100722.97;4985141;28;20054;-40
2022/03/05 05:14:55;;;;;;;2.90;1.90;;;;;;;18.44;36.99;100720.53;4983509;28;20097;-40
2022/03/05 05:17:20;;;;;;;2.85;2.15;;;;;;;18.45;36.97;100730.09;4985260;28;20034;-40
2022/03/05 05:19:46;;;;;;;2.72;2.13;;;;;;;18.44;36.90;100731.91;4984501;28;20108;-40
2022/03/05 05:22:11;;;;;;;2.17;1.95;;;;;;;18.43;37.00;100724.22;4984360;28;20037;-40
2022/03/05 05:24:38;;;;;;;2.95;2.13;;;;;;;18.43;36.92;100727.63;4986794;28;20026;-40
2022/03/05 05:27:05;;;;;;;3.10;2.42;;;;;;;18.43;36.91;100730.28;4987090;28;20120;-40
2022/03/05 05:29:30;;;;;;;2.92;2.13;;;;;;;18.43;36.82;100734.75;4989236;28;20264;-40
2022/03/05 05:31:56;;;;;;;3.42;2.42;;;;;;;18.42;36.98;100725.22;4986986;28;20053;-40
2022/03/05 05:34:22;;;;;;;2.55;2.08;;;;;;;18.42;36.98;100730.50;4988831;28;20026;-40
2022/03/05 05:36:47;;;;;;;3.38;2.08;;;;;;;18.41;36.80;100732.31;4988552;28;20030;-41
2022/03/05 05:39:13;;;;;;;4.05;2.70;;;;;;;18.41;37.01;100728.84;4988032;28;20073;-40
2022/03/05 05:41:40;;;;;;;3.08;2.17;;;;;;;18.40;37.04;100730.69;4988960;28;20026;-40
2022/03/05 05:44:07;;;;;;;2.78;2.10;;;;;;;18.39;36.92;100728.22;4987921;28;20030;-40
2022/03/05 05:46:33;;;;;;;3.67;2.50;;;;;;;18.39;37.00;100730.88;4989004;28;20026;-40
2022/03/05 05:48:59;;;;;;;4.40;2.60;;;;;;;18.38;37.06;100730.06;4987680;28;20042;-40
2022/03/05 05:51:26;;;;;;;2.75;2.08;;;;;;;18.38;37.16;100731.88;4988441;28;20137;-40
2022/03/05 05:53:51;;;;;;;2.35;2.00;;;;;;;18.37;36.90;100731.06;4987980;28;20456;-40
2022/03/05 05:56:17;;;;;;;2.55;2.25;;;;;;;18.36;36.96;100729.41;4987777;28;20038;-40
2022/03/05 05:58:42;;;;;;;3.17;2.60;;;;;;;18.37;36.96;100730.25;4988487;28;20072;-40
2022/03/05 06:01:08;;;;;;;3.50;2.75;;;;;;;18.36;36.88;100733.88;4985008;28;20038;-40
2022/03/05 06:03:33;;;;;;;3.05;2.30;;;;;;;18.35;36.72;100732.25;4987860;28;20022;-40
2022/03/05 06:05:59;;;;;;;4.68;2.22;;;;;;;18.34;36.52;100728.78;4985032;28;20443;-40
2022/03/05 06:08:25;;;;;;;2.92;2.00;;;;;;;18.34;36.63;100735.88;4986739;28;20089;-42
2022/03/05 06:10:51;;;;;;;2.25;2.05;;;;;;;18.33;36.38;100732.44;4984961;28;20060;-40
2022/03/05 06:13:17;;;;;;;3.17;2.35;;;;;;;18.33;36.30;100735.06;4985375;28;20050;-40
2022/03/05 06:15:44;;;;;;;2.40;2.20;;;;;;;18.33;36.49;100728.97;4987419;28;20031;-41
2022/03/05 06:18:10;;;;;;;2.42;2.03;;;;;;;18.33;36.38;100739.53;4988343;28;20105;-41
2022/03/05 06:20:36;;;;;;;2.85;2.30;;;;;;;18.31;36.38;100734.44;4983756;28;20120;-40
2022/03/05 06:23:01;;;;;;;2.38;1.98;;;;;;;18.32;36.34;100737.91;4984727;28;20043;-40
2022/03/05 06:25:27;;;;;;;3.33;2.50;;;;;;;18.31;36.47;100731.81;4987046;28;20190;-40
2022/03/05 06:27:52;;;;;;;2.90;2.05;;;;;;;18.30;36.39;100730.16;4986293;28;20068;-40
2022/03/05 06:30:17;;;;;;;2.33;1.55;;;;;;;18.30;36.37;100732.81;4986867;28;20427;-41
2022/03/05 06:32:43;;;;;;;3.53;1.95;;;;;;;18.30;36.35;100729.34;4984638;28;20436;-40
2022/03/05 06:35:08;;;;;;;2.30;1.65;;;;;;;18.30;36.52;100724.91;4983605;28;20026;-40
2022/03/05 06:37:34;;;;;;;2.03;1.75;;;;;;;18.31;36.42;100723.06;4986804;28;20030;-40
2022/03/05 06:40:00;;;;;;;1.77;1.35;;;;;;;18.33;36.39;100721.88;4983987;28;20391;-40
2022/03/05 06:42:26;;;;;;;2.50;2.13;;;;;;;18.36;36.41;100733.88;4984532;28;20304;-40
2022/03/05 06:44:51;;;;;;;2.30;1.67;;;;;;;18.39;36.43;100722.94;4979949;28;20201;-40
2022/03/05 06:47:17;;;;;;;2.05;1.60;;;;;;;18.44;36.42;100717.91;4985995;28;20378;-40
2022/03/05 06:49:43;;;;;;;2.10;1.90;;;;;;;18.50;36.37;100719.78;4983738;28;20030;-41
2022/03/05 06:52:10;;;;;;;2.53;1.52;;;;;;;18.57;36.67;100725.94;4983111;28;20031;-40
2022/03/05 06:54:36;;;;;;;2.38;1.83;;;;;;;18.65;36.29;100719.75;4985689;28;20026;-40
2022/03/05 06:57:02;;;;;;;2.70;2.25;;;;;;;18.72;36.09;100724.06;4986423;28;20160;-41
2022/03/05 06:59:28;;;;;;;2.10;1.75;;;;;;;18.80;35.93;100723.13;4983449;28;20032;-42
2022/03/05 07:01:53;;;;;;;2.30;1.75;;;;;;;18.85;35.84;100726.00;4982894;28;20042;-40
2022/03/05 07:04:18;;;;;;;2.40;1.55;;;;;;;18.91;35.82;100722.56;4983844;28;20474;-40
2022/03/05 07:06:44;;;;;;;2.33;1.92;;;;;;;18.97;35.65;100719.16;4982983;28;20526;-40
2022/03/05 07:09:09;;;;;;;2.58;1.92;;;;;;;19.02;35.64;100722.03;4986008;28;20076;-42
2022/03/05 07:11:35;;;;;;;2.15;1.83;;;;;;;19.08;35.58;100723.09;4981750;28;20185;-40
2022/03/05 07:14:00;;;;;;;1.65;1.45;;;;;;;19.13;35.46;100720.69;4984878;28;20038;-40
2022/03/05 07:16:28;;;;;;;2.95;1.83;;;;;;;19.17;35.36;100722.75;4986817;28;20125;-40
2022/03/05 07:18:53;;;;;;;1.70;1.10;;;;;;;19.21;35.25;100718.72;4985434;28;20034;-40
2022/03/05 07:21:19;;;;;;;2.30;1.73;;;;;;;19.27;35.15;100721.59;4980236;28;20675;-41
2022/03/05 07:23:44;;;;;;;2.00;1.48;;;;;;;19.31;34.82;100722.84;4982690;28;20022;-40
2022/03/05 07:26:10;;;;;;;2.67;1.77;;;;;;;19.33;35.07;100724.25;4986643;28;20038;-40
2022/03/05 07:28:35;;;;;;;2.13;1.60;;;;;;;19.38;35.12;100737.69;4985618;28;20113;-40
2022/03/05 07:31:01;;;;;;;2.63;1.75;;;;;;;19.43;35.06;100732.63;4983541;28;20064;-40
2022/03/05 07:33:26;;;;;;;3.83;1.63;;;;;;;19.47;35.10;100731.22;4985397;28;20084;-41
2022/03/05 07:35:52;;;;;;;2.50;1.33;;;;;;;19.52;35.19;100733.31;4983883;28;20109;-40
2022/03/05 07:38:18;;;;;;;2.17;1.60;;;;;;;19.58;35.27;100734.34;4986410;28;20109;-40
2022/03/05 07:40:44;;;;;;;2.33;1.35;;;;;;;19.62;35.18;100738.25;4984612;28;20437;-40
2022/03/05 07:43:12;;;;;;;1.65;1.52;;;;;;;19.64;35.11;100738.84;4984194;28;20041;-41
2022/03/05 07:45:37;;;;;;;1.63;1.38;;;;;;;19.67;35.19;100738.47;4982794;28;20034;-40
2022/03/05 07:48:03;;;;;;;1.80;1.15;;;;;;;19.69;35.04;100739.09;4984102;28;20038;-40
2022/03/05 07:50:29;;;;;;;2.00;1.63;;;;;;;19.74;35.09;100736.66;4980756;28;20130;-40
2022/03/05 07:52:54;;;;;;;2.22;1.40;;;;;;;19.79;35.09;100742.19;4983430;28;20031;-40
2022/03/05 07:55:21;;;;;;;3.30;1.40;;;;;;;19.80;35.21;100744.63;4982072;28;20629;-41
2022/03/05 07:57:46;;;;;;;4.32;1.50;;;;;;;19.84;35.42;100750.34;4984191;28;20045;-41
2022/03/05 08:00:12;;;;;;;2.38;1.23;;;;;;;19.87;35.24;100749.91;4981462;28;20031;-40
2022/03/05 08:02:37;;;;;;;6.03;1.30;;;;;;;19.88;35.16;100751.53;4983233;28;20068;-40
2022/03/05 08:05:03;;;;;;;2.25;1.38;;;;;;;19.91;35.28;100759.09;4982320;28;20468;-41
2022/03/05 08:07:29;;;;;;;1.60;0.90;;;;;;;19.92;35.11;100751.97;4981922;28;20027;-40
2022/03/05 08:09:54;;;;;;;2.95;1.65;;;;;;;19.96;35.25;100758.50;4983339;28;20904;-40
2022/03/05 08:12:19;;;;;;;2.38;1.23;;;;;;;19.99;35.09;100758.91;4983208;28;20259;-40
2022/03/05 08:14:45;;;;;;;2.53;1.35;;;;;;;20.03;35.00;100754.03;4985031;28;20038;-40
2022/03/05 08:17:11;;;;;;;1.80;1.13;;;;;;;20.05;35.05;100759.94;4981840;28;20063;-40
2022/03/05 08:19:37;;;;;;;1.80;1.10;;;;;;;20.08;34.81;100756.91;4985212;28;20030;-41
2022/03/05 08:22:03;;;;;;;1.75;1.20;;;;;;;20.10;35.08;100760.97;4980236;28;20108;-40
2022/03/05 08:24:29;;;;;;;2.35;1.20;;;;;;;20.13;34.96;100752.66;4985007;28;20022;-40
2022/03/05 08:26:54;;;;;;;3.28;1.20;;;;;;;20.16;35.02;100754.09;4981545;28;20060;-40
2022/03/05 08:29:19;;;;;;;1.48;1.27;;;;;;;20.17;35.08;100759.19;4985898;28;20060;-40
2022/03/05 08:31:45;;;;;;;1.75;1.35;;;;;;;20.17;34.98;100751.25;4984210;28;20438;-40
2022/03/05 08:34:10;;;;;;;1.80;1.25;;;;;;;20.21;34.97;100752.47;4985696;28;20045;-40
2022/03/05 08:36:36;;;;;;;2.38;1.80;;;;;;;20.24;35.02;100755.72;4981108;28;20510;-40
2022/03/05 08:39:01;;;;;;;2.30;1.00;;;;;;;20.26;34.96;100748.41;4984987;28;20080;-40
2022/03/05 08:41:27;;;;;;;1.75;1.23;;;;;;;20.28;34.65;100752.50;4979552;28;20032;-40
2022/03/05 08:43:52;;;;;;;2.35;1.35;;;;;;;20.29;34.80;100751.47;4976497;28;20030;-40
2022/03/05 08:46:19;;;;;;;2.25;1.40;;;;;;;20.36;34.46;100754.09;4993952;28;20547;-40
2022/03/05 08:48:44;;;;;;;2.95;1.08;;;;;;;20.40;34.52;100750.88;4980813;28;20109;-40
2022/03/05 08:51:10;;;;;;;4.95;1.50;;;;;;;20.45;34.78;100747.63;4979974;28;20036;-40
2022/03/05 08:53:35;;;;;;;3.17;1.40;;;;;;;20.47;34.98;100753.53;4981908;28;20485;-40
2022/03/05 08:56:01;;;;;;;2.72;1.05;;;;;;;20.46;35.24;100738.69;4980674;28;20030;-41
2022/03/05 08:58:26;;;;;;;3.45;1.38;;;;;;;20.45;35.32;100734.41;4981299;28;20030;-41
2022/03/05 09:00:52;;;;;;;11.18;2.30;;;;;;;20.49;35.88;100744.38;4982493;28;20140;-39
2022/03/05 09:03:18;;;;;;;6.28;1.73;;;;;;;20.57;35.92;100730.13;4981335;28;20053;-42
2022/03/05 09:05:45;;;;;;;6.72;1.70;;;;;;;20.54;36.06;100734.00;4980205;28;20038;-42
2022/03/05 09:08:11;;;;;;;5.63;1.45;;;;;;;20.55;36.21;100737.47;4983081;28;20447;-43
2022/03/05 09:10:37;;;;;;;6.20;1.30;;;;;;;20.59;36.25;100728.09;4978542;28;20046;-40
2022/03/05 09:13:02;;;;;;;10.70;1.70;;;;;;;20.59;36.21;100722.81;4979480;28;20500;-41
2022/03/05 09:15:28;;;;;;;7.85;1.30;;;;;;;20.58;36.23;100723.84;4983239;28;20029;-42
2022/03/05 09:17:53;;;;;;;3.92;1.20;;;;;;;20.56;36.20;100723.22;4983590;28;21708;-41
2022/03/05 09:20:19;;;;;;;7.30;1.40;;;;;;;20.54;36.17;100722.59;4978706;28;20247;-41
2022/03/05 09:22:45;;;;;;;10.85;1.50;;;;;;;20.49;36.32;100711.81;4981723;28;20026;-43
2022/03/05 09:25:11;;;;;;;3.33;1.38;;;;;;;20.45;36.68;100715.88;4981000;28;20026;-40
2022/03/05 09:27:37;;;;;;;6.43;1.20;;;;;;;20.43;36.49;100721.38;4980950;28;20033;-41
2022/03/05 09:30:04;;;;;;;5.50;1.33;;;;;;;20.41;36.50;100719.94;4981193;28;20049;-40
2022/03/05 09:32:30;;;;;;;2.70;1.35;;;;;;;20.38;36.56;100725.63;4980878;28;20608;-41
2022/03/05 09:34:59;;;;;;;3.00;1.10;;;;;;;20.36;36.53;100703.81;4976960;28;20030;-43
2022/03/05 09:37:29;;;;;;;3.15;1.40;;;;;;;20.32;36.51;100699.97;4977995;28;20385;-42
2022/03/05 09:39:58;;;;;;;8.45;1.45;;;;;;;20.29;36.47;100703.03;4979525;28;20049;-43
2022/03/05 09:42:24;;;;;;;2.90;0.88;;;;;;;20.26;36.39;100712.19;4983059;28;20041;-43
2022/03/05 09:44:49;;;;;;;4.20;1.15;;;;;;;20.25;36.30;100715.84;4980242;28;20494;-42
2022/03/05 09:47:15;;;;;;;3.92;1.02;;;;;;;20.24;36.26;100702.81;4980112;28;20093;-41
2022/03/05 09:49:41;;;;;;;4.20;1.30;;;;;;;20.22;36.20;100695.09;4978681;28;20030;-43
2022/03/05 09:52:08;;;;;;;2.25;1.10;;;;;;;20.20;36.04;100710.34;4978256;28;20397;-40
2022/03/05 09:54:34;;;;;;;2.70;1.35;;;;;;;20.18;35.99;100715.03;4976839;28;20474;-40
2022/03/05 09:57:00;;;;;;;1.70;1.08;;;;;;;20.14;35.66;100709.31;4979555;28;20030;-41
2022/03/05 09:59:26;;;;;;;3.70;1.40;;;;;;;20.13;35.36;100712.97;4980664;28;20391;-49
2022/03/05 10:01:51;;;;;;;6.18;1.42;;;;;;;20.12;35.07;100706.06;4978781;28;20775;-49
2022/03/05 10:04:23;;;;;;;2.13;1.70;;;;;;;20.11;34.96;100696.50;4978783;28;20042;-42
2022/03/05 10:07:26;;;;;;;9.13;2.38;;;;;;;20.07;35.56;100708.47;4981274;28;20022;-39
2022/03/05 10:10:07;;;;;;;15.43;2.97;;;;;;;20.04;35.97;100703.59;4981152;28;20034;-39
2022/03/05 10:12:34;;;;;;;10.13;2.10;;;;;;;20.06;35.81;100708.69;4976117;28;20360;-39
2022/03/05 10:15:11;;;;;;;5.07;2.58;;;;;;;20.05;35.78;100709.69;4982124;28;20125;-41
2022/03/05 10:17:57;;;;;;;3.47;2.13;;;;;;;20.01;35.88;100695.25;4981109;28;20178;-50
2022/03/05 10:20:32;;;;;;;6.78;2.70;;;;;;;19.99;35.93;100710.50;4985171;28;20034;-42
2022/03/05 10:23:00;;;;;;;5.75;2.30;;;;;;;19.99;35.74;100695.44;4982430;28;20041;-40
2022/03/05 10:25:33;;;;;;;5.68;2.20;;;;;;;19.99;35.90;100695.44;4981026;28;20130;-39
2022/03/05 10:28:01;;;;;;;9.50;2.83;;;;;;;19.99;35.62;100699.91;4979265;28;20053;-40
2022/03/05 10:30:32;;;;;;;4.70;2.25;;;;;;;19.98;35.61;100685.88;4980500;28;20034;-41
2022/03/05 10:32:57;;;;;;;4.82;2.15;;;;;;;20.01;35.82;100690.78;4998613;28;20046;-40
2022/03/05 10:35:23;;;;;;;2.13;1.92;;;;;;;19.98;35.74;100693.81;4986082;28;20034;-40
2022/03/05 10:37:53;;;;;;;2.75;1.83;;;;;;;19.97;35.72;100692.19;4983093;28;20026;-41
2022/03/05 10:40:29;;;;;;;9.75;2.30;;;;;;;19.95;35.79;100694.22;4985278;28;20023;-42
2022/03/05 10:42:59;;;;;;;5.78;2.53;;;;;;;19.94;35.92;100687.28;4983630;28;20485;-40
2022/03/05 10:45:25;;;;;;;4.93;2.17;;;;;;;19.94;35.91;100676.72;4984555;28;20040;-39
2022/03/05 10:47:51;;;;;;;7.15;2.58;;;;;;;19.94;35.84;100671.44;4982042;28;20061;-39
2022/03/05 10:50:19;;;;;;;8.30;2.28;;;;;;;19.95;35.51;100698.69;4985489;28;20034;-40
2022/03/05 10:52:45;;;;;;;5.25;2.30;;;;;;;19.94;35.64;100681.19;4977211;28;20088;-41
2022/03/05 10:55:23;;;;;;;3.25;1.88;;;;;;;19.92;35.22;100676.09;4985269;28;20121;-43
2022/03/05 10:58:00;;;;;;;4.82;1.90;;;;;;;19.89;35.20;100682.59;4982743;28;20034;-40
2022/03/05 11:00:27;;;;;;;2.10;1.90;;;;;;;19.86;33.84;100676.91;4981774;28;20679;-39
2022/03/05 11:02:54;;;;;;;4.03;2.30;;;;;;;19.82;33.11;100679.16;4983196;28;20031;-40
2022/03/05 11:05:20;;;;;;;9.43;2.15;;;;;;;19.82;33.03;100678.34;4982653;28;20469;-41
2022/03/05 11:07:48;;;;;;;2.95;2.08;;;;;;;19.83;32.92;100672.03;4982619;28;20026;-40
2022/03/05 11:10:14;;;;;;;3.13;2.40;;;;;;;19.83;32.60;100670.22;4977700;28;20042;-39
2022/03/05 11:12:41;;;;;;;7.43;2.75;;;;;;;19.84;32.15;100665.72;4980591;28;20409;-39
2022/03/05 11:15:08;;;;;;;10.95;2.22;;;;;;;19.81;31.51;100666.94;4981743;28;20038;-42
2022/03/05 11:17:34;;;;;;;8.80;2.72;;;;;;;19.80;31.19;100664.50;4980456;28;20061;-39
2022/03/05 11:19:59;;;;;;;5.00;2.65;;;;;;;19.78;31.16;100671.81;4977012;28;20110;-39
2022/03/05 11:22:26;;;;;;;11.20;2.67;;;;;;;19.76;31.25;100657.97;4979362;28;20124;-42